Airport ID:KTSP
Update Time (UTC):14/06/2021 20:15
Wind Speed (Knots):14
Wind Direction (Magnetic):300
Temperature (°C):26.8
Dew Point (°C):9.1
Humidity (%):33.2
Altimeter (inHg):30.11
Density Altitude (Feet):06200
Visibility (Miles):9
Clouds (Hundreds of feet):CLR
Present Weather:
METAR:METAR KTSP 142015Z AUTO 32014KT 9SM CLR 27/09 A3011 RMK AO2

The data displayed is for advisory purposes only and is not to be used for flight planning or operations.